Time;durP1;ratioP1;P1;durP2;ratioP2;P2;SDS_P1;SDS_P2;PMS_P1;PMS_P2;Temp;Humidity;BMP_temperature;BMP_pressure;BME280_temperature;BME280_humidity;BME280_pressure;Samples;Min_cycle;Max_cycle;Signal;HPM_P1;HPM_P2
2023/01/12 00:01:20;;;;;;;9.03;1.53;;;7.40;1.00;;;;;;5045319;28;20186;-76
2023/01/12 00:03:46;;;;;;;4.17;1.30;;;7.50;1.00;;;;;;5044246;28;20231;-77
2023/01/12 00:06:13;;;;;;;5.67;1.30;;;7.50;1.00;;;;;;5044232;28;20600;-77
2023/01/12 00:08:39;;;;;;;9.00;1.83;;;7.50;1.00;;;;;;5045582;28;20684;-78
2023/01/12 00:11:04;;;;;;;8.13;1.50;;;7.50;1.00;;;;;;5045341;28;20217;-76
2023/01/12 00:13:31;;;;;;;7.50;1.97;;;7.40;1.00;;;;;;5045684;28;20284;-77
2023/01/12 00:18:46;;;;;;;6.60;1.40;;;7.40;1.00;;;;;;5043941;28;20212;-76
2023/01/12 00:21:12;;;;;;;7.23;1.77;;;7.30;1.00;;;;;;5043403;28;20221;-76
2023/01/12 00:23:38;;;;;;;7.23;1.60;;;7.40;1.00;;;;;;5044924;28;20222;-76
2023/01/12 00:26:07;;;;;;;6.07;1.50;;;7.40;1.00;;;;;;5044849;28;20189;-76
2023/01/12 00:28:34;;;;;;;8.60;1.40;;;7.40;1.00;;;;;;5044770;28;20205;-77
2023/01/12 00:31:01;;;;;;;4.50;1.57;;;7.40;1.00;;;;;;5045409;28;20202;-76
2023/01/12 00:33:27;;;;;;;6.00;1.53;;;7.30;1.00;;;;;;5044778;28;20229;-77
2023/01/12 00:35:52;;;;;;;4.27;1.30;;;7.30;1.00;;;;;;5044294;28;20560;-76
2023/01/12 00:38:18;;;;;;;5.07;1.40;;;7.30;1.00;;;;;;5044937;28;20198;-77
2023/01/12 00:40:43;;;;;;;5.40;1.33;;;7.30;1.00;;;;;;5042564;28;20182;-77
2023/01/12 00:45:53;;;;;;;5.03;1.50;;;7.30;1.00;;;;;;5044704;28;20265;-77
2023/01/12 00:48:18;;;;;;;5.97;1.57;;;7.30;1.00;;;;;;5045077;28;20197;-77
2023/01/12 00:50:47;;;;;;;8.13;1.93;;;7.40;1.00;;;;;;5045112;28;20185;-76
2023/01/12 00:53:12;;;;;;;7.50;1.97;;;7.30;1.00;;;;;;5045299;28;20218;-77
2023/01/12 00:55:38;;;;;;;8.83;1.90;;;7.30;1.00;;;;;;5044928;28;20210;-77
2023/01/12 00:58:04;;;;;;;6.43;1.63;;;7.30;1.00;;;;;;5044756;28;20264;-77
2023/01/12 01:00:29;;;;;;;8.33;2.47;;;7.30;1.00;;;;;;5045214;28;20186;-75
2023/01/12 01:02:55;;;;;;;7.17;1.83;;;7.30;1.00;;;;;;5044921;28;20186;-77
2023/01/12 01:05:21;;;;;;;4.33;1.80;;;7.40;1.00;;;;;;5044595;28;20652;-76
2023/01/12 01:07:46;;;;;;;9.83;2.40;;;7.40;1.00;;;;;;5042341;28;20210;-76
2023/01/12 01:10:13;;;;;;;5.10;1.37;;;7.30;1.00;;;;;;5043350;28;20231;-76
2023/01/12 01:12:40;;;;;;;7.63;2.10;;;7.30;1.00;;;;;;5044626;28;20182;-77
2023/01/12 01:15:06;;;;;;;8.37;1.80;;;7.40;1.00;;;;;;5044609;28;20193;-76
2023/01/12 01:17:31;;;;;;;6.87;1.67;;;7.40;1.00;;;;;;5043423;28;20210;-77
2023/01/12 01:19:57;;;;;;;7.10;1.40;;;7.40;1.00;;;;;;5044769;28;20190;-76
2023/01/12 01:22:23;;;;;;;4.23;1.60;;;7.40;1.00;;;;;;5044820;28;20185;-76
2023/01/12 01:24:48;;;;;;;6.97;1.47;;;7.40;1.00;;;;;;5044494;28;20232;-77
2023/01/12 01:27:14;;;;;;;6.77;1.90;;;7.40;1.00;;;;;;5044460;28;20198;-77
2023/01/12 01:29:39;;;;;;;4.83;1.37;;;7.40;1.00;;;;;;5043935;28;20217;-77
2023/01/12 01:32:06;;;;;;;6.67;1.50;;;7.40;1.00;;;;;;5048218;28;20182;-77
2023/01/12 01:34:32;;;;;;;5.83;2.23;;;7.40;1.00;;;;;;5048054;28;20615;-77
2023/01/12 01:36:58;;;;;;;8.57;2.00;;;7.40;1.00;;;;;;5047303;28;20273;-77
2023/01/12 01:39:24;;;;;;;4.20;1.40;;;7.40;1.00;;;;;;5047054;28;20218;-77
2023/01/12 01:41:50;;;;;;;5.23;1.57;;;7.30;1.00;;;;;;5048156;28;20907;-77
2023/01/12 01:44:30;;;;;;;5.73;1.60;;;7.20;4.70;;;;;;5048122;28;20238;-77
2023/01/12 01:47:06;;;;;;;3.50;1.60;;;7.20;6.90;;;;;;5047985;28;20185;-77
2023/01/12 01:49:48;;;;;;;5.90;1.30;;;7.20;6.20;;;;;;5047921;28;20538;-76
2023/01/12 01:52:26;;;;;;;3.47;1.30;;;7.20;3.50;;;;;;5054351;28;20416;-77
2023/01/12 01:54:58;;;;;;;6.78;2.08;;;7.10;80.00;;;;;;5046702;28;20802;-77
2023/01/12 01:57:32;;;;;;;5.47;1.60;;;7.30;4.70;;;;;;5047641;28;20655;-77
2023/01/12 01:59:59;;;;;;;4.10;1.57;;;7.30;1.70;;;;;;5047572;28;20289;-77
2023/01/12 02:02:25;;;;;;;5.77;1.50;;;7.30;3.60;;;;;;5047502;28;20536;-77
2023/01/12 02:04:53;;;;;;;7.67;1.97;;;7.30;3.70;;;;;;5047189;28;20181;-77
2023/01/12 02:07:18;;;;;;;4.87;1.70;;;7.30;5.20;;;;;;5047235;28;20190;-77
2023/01/12 02:09:44;;;;;;;5.67;1.70;;;7.30;4.10;;;;;;5047743;28;20194;-77
2023/01/12 02:18:00;;;;;;;9.37;2.30;;;7.30;15.20;;;;;;5047477;28;20324;-77
2023/01/12 02:20:47;;;;;;;8.63;1.77;;;7.30;14.80;;;;;;5046026;28;20566;-77
2023/01/12 02:23:38;;;;;;;4.97;1.27;;;7.30;16.90;;;;;;5046600;28;20214;-77
2023/01/12 02:26:41;;;;;;;5.72;1.88;;;7.20;45.20;;;;;;5045635;28;20400;-77
2023/01/12 02:29:26;;;;;;;5.23;1.37;;;7.30;12.70;;;;;;5046893;28;20201;-77
2023/01/12 02:32:18;;;;;;;6.67;1.60;;;7.30;14.60;;;;;;5035617;28;20195;-77
2023/01/12 02:35:10;;;;;;;5.33;1.20;;;7.30;15.40;;;;;;5047310;28;20278;-77
2023/01/12 02:38:02;;;;;;;5.40;1.43;;;7.40;14.00;;;;;;5047175;28;20552;-77
2023/01/12 02:40:53;;;;;;;5.40;1.43;;;7.40;9.40;;;;;;5046235;28;20229;-77
2023/01/12 02:43:23;;;;;;;8.83;1.50;;;7.40;8.30;;;;;;5053023;28;20183;-77
2023/01/12 02:45:53;;;;;;;4.27;1.40;;;7.50;7.90;;;;;;5046270;28;20183;-77
2023/01/12 02:48:56;;;;;;;4.07;1.30;;;7.50;1.30;;;;;;5046714;28;20202;-77
2023/01/12 02:51:32;;;;;;;5.40;1.40;;;7.60;1.00;;;;;;5044073;28;20224;-76
2023/01/12 02:54:01;;;;;;;3.97;1.33;;;7.50;1.10;;;;;;5047036;28;20198;-76
2023/01/12 02:56:36;;;;;;;3.27;1.10;;;7.50;4.80;;;;;;5046784;28;20179;-77
2023/01/12 02:59:06;;;;;;;5.77;1.10;;;7.50;2.90;;;;;;5046594;28;20205;-77
2023/01/12 03:01:32;;;;;;;6.33;1.70;;;7.50;7.10;;;;;;5037575;28;20182;-77
2023/01/12 03:04:02;;;;;;;2.87;1.10;;;7.50;7.10;;;;;;5046459;28;20182;-77
2023/01/12 03:06:57;;;;;;;4.57;1.07;;;7.60;3.50;;;;;;5036208;28;20186;-77
2023/01/12 03:09:35;;;;;;;6.57;1.67;;;7.60;6.00;;;;;;5037516;28;20206;-76
2023/01/12 03:12:10;;;;;;;5.00;1.10;;;7.50;6.10;;;;;;5046259;28;20174;-76
2023/01/12 03:14:39;;;;;;;5.37;1.77;;;7.60;7.80;;;;;;5046469;28;20206;-77
2023/01/12 03:17:14;;;;;;;3.13;1.17;;;7.60;11.20;;;;;;5046413;28;20202;-77
2023/01/12 03:19:43;;;;;;;4.80;1.30;;;7.50;10.80;;;;;;5042995;28;20751;-77
2023/01/12 03:22:11;;;;;;;5.47;1.23;;;7.60;12.40;;;;;;5043973;28;20400;-77
2023/01/12 03:24:42;;;;;;;5.63;1.43;;;7.60;10.20;;;;;;5044871;28;20178;-77
2023/01/12 03:27:17;;;;;;;3.10;1.10;;;7.70;6.30;;;;;;5043724;28;20190;-77
2023/01/12 03:29:49;;;;;;;4.63;2.13;;;7.70;6.20;;;;;;5045123;28;20224;-76
2023/01/12 03:32:15;;;;;;;5.73;1.13;;;7.70;4.20;;;;;;5045551;28;20170;-77
2023/01/12 03:34:41;;;;;;;4.03;1.10;;;7.60;6.10;;;;;;5045542;28;20656;-76
2023/01/12 03:37:31;;;;;;;4.87;1.20;;;7.60;11.10;;;;;;5045164;28;20229;-77
2023/01/12 03:40:08;;;;;;;5.13;1.40;;;7.50;16.30;;;;;;5046212;28;20234;-76
2023/01/12 03:42:40;;;;;;;5.90;1.50;;;7.60;14.80;;;;;;5045435;28;20174;-77
2023/01/12 03:45:22;;;;;;;3.73;1.13;;;7.60;18.70;;;;;;5045652;28;20209;-77
2023/01/12 03:47:59;;;;;;;4.07;1.30;;;7.60;4.70;;;;;;5033721;28;20230;-76
2023/01/12 03:50:33;;;;;;;4.70;1.10;;;7.70;11.90;;;;;;5045544;28;20303;-76
2023/01/12 03:53:01;;;;;;;4.50;1.17;;;9.50;15.10;;;;;;5045287;28;20175;-76
2023/01/12 03:55:29;;;;;;;3.73;1.00;;;7.60;16.40;;;;;;5045345;28;20178;-77
2023/01/12 03:57:55;;;;;;;4.47;1.20;;;7.60;13.60;;;;;;5045152;28;20206;-77
2023/01/12 04:00:23;;;;;;;4.87;1.30;;;7.70;13.90;;;;;;5043792;28;20189;-77
2023/01/12 04:02:49;;;;;;;2.70;1.10;;;7.70;11.40;;;;;;5044695;28;20213;-76
2023/01/12 04:05:15;;;;;;;2.60;0.90;;;7.70;11.70;;;;;;5045206;28;21058;-76
2023/01/12 04:07:40;;;;;;;3.63;1.13;;;7.70;13.20;;;;;;5045203;28;20213;-77
2023/01/12 04:10:07;;;;;;;4.23;0.97;;;7.70;13.80;;;;;;5045254;28;20213;-77
2023/01/12 04:12:32;;;;;;;4.27;1.10;;;7.70;31.50;;;;;;5052369;28;20269;-76
2023/01/12 04:14:58;;;;;;;2.93;0.90;;;7.70;12.00;;;;;;5043728;28;20280;-77
2023/01/12 04:17:24;;;;;;;3.03;0.90;;;7.70;14.70;;;;;;5045178;28;20202;-77
2023/01/12 04:19:52;;;;;;;2.10;0.90;;;7.70;15.70;;;;;;5045174;28;20178;-76
2023/01/12 04:25:02;;;;;;;6.27;1.07;;;7.60;23.20;;;;;;5045280;28;20209;-77
2023/01/12 04:27:28;;;;;;;2.90;1.00;;;7.70;24.00;;;;;;5044860;28;20660;-77
2023/01/12 04:29:54;;;;;;;2.20;0.80;;;7.70;25.80;;;;;;5045221;28;20297;-77
2023/01/12 04:32:20;;;;;;;3.40;1.00;;;8.30;26.40;;;;;;5045224;28;20648;-77
2023/01/12 04:34:45;;;;;;;2.93;0.90;;;7.70;27.70;;;;;;5045118;28;20198;-77
2023/01/12 04:37:11;;;;;;;3.20;1.00;;;7.70;29.30;;;;;;5044731;28;20186;-77
2023/01/12 04:39:37;;;;;;;4.37;0.87;;;7.70;25.40;;;;;;5045015;28;20224;-77
2023/01/12 04:42:03;;;;;;;3.00;1.00;;;7.70;24.20;;;;;;5045178;28;20664;-77
2023/01/12 04:44:29;;;;;;;3.70;1.10;;;7.70;27.10;;;;;;5044704;28;20210;-77
2023/01/12 04:46:54;;;;;;;1.50;0.80;;;7.60;29.30;;;;;;5044939;28;20216;-77
2023/01/12 04:49:20;;;;;;;2.67;0.97;;;7.70;29.50;;;;;;5043913;28;20765;-77
2023/01/12 04:51:45;;;;;;;3.50;1.20;;;7.70;26.30;;;;;;5044805;28;20659;-77
2023/01/12 04:54:11;;;;;;;3.20;1.00;;;7.70;25.90;;;;;;5043522;28;20185;-77
2023/01/12 04:56:37;;;;;;;1.47;0.90;;;7.70;29.10;;;;;;5043759;28;20718;-78
2023/01/12 04:59:05;;;;;;;3.13;1.00;;;7.70;25.50;;;;;;5043559;28;20243;-77
2023/01/12 05:01:30;;;;;;;1.43;0.73;;;7.70;30.30;;;;;;5044180;28;20174;-77
2023/01/12 05:04:01;;;;;;;2.53;1.00;;;7.70;31.90;;;;;;5044667;28;20182;-77
2023/01/12 05:06:28;;;;;;;4.07;0.93;;;7.70;27.10;;;;;;5047026;28;20194;-77
2023/01/12 05:11:38;;;;;;;3.33;0.90;;;7.80;25.20;;;;;;5048506;28;20192;-77
2023/01/12 05:14:04;;;;;;;1.37;0.80;;;7.80;25.60;;;;;;5047215;28;20182;-77
2023/01/12 05:16:29;;;;;;;2.83;0.80;;;7.80;23.60;;;;;;5048410;28;20182;-78
2023/01/12 05:18:55;;;;;;;3.03;0.70;;;7.80;26.70;;;;;;5047774;28;20231;-77
2023/01/12 05:21:22;;;;;;;4.20;1.10;;;7.70;27.50;;;;;;5048467;28;20186;-77
2023/01/12 05:23:49;;;;;;;3.70;1.10;;;7.80;25.00;;;;;;5048927;28;20301;-77
2023/01/12 05:26:15;;;;;;;5.23;1.00;;;7.80;26.10;;;;;;5046878;28;20869;-78
2023/01/12 05:28:40;;;;;;;4.90;1.43;;;7.80;21.80;;;;;;5048560;28;20328;-77
2023/01/12 05:31:11;;;;;;;3.40;1.00;;;7.80;21.00;;;;;;5048300;28;20261;-78
2023/01/12 05:33:39;;;;;;;4.63;1.23;;;7.80;24.60;;;;;;5047224;28;20308;-77
2023/01/12 05:36:06;;;;;;;3.73;1.13;;;7.80;23.00;;;;;;5048464;28;20178;-77
2023/01/12 05:38:32;;;;;;;2.93;1.00;;;7.90;20.50;;;;;;5047888;28;20229;-77
2023/01/12 05:40:59;;;;;;;3.00;1.10;;;7.90;21.70;;;;;;5047097;28;20711;-78
2023/01/12 05:46:10;;;;;;;2.10;1.00;;;7.80;24.70;;;;;;5047611;28;20212;-77
2023/01/12 05:48:36;;;;;;;2.03;0.80;;;7.80;30.80;;;;;;5047021;28;20826;-77
2023/01/12 05:51:02;;;;;;;2.90;0.77;;;7.80;29.50;;;;;;5047724;28;20186;-77
2023/01/12 05:53:28;;;;;;;3.13;0.80;;;7.90;26.40;;;;;;5046954;28;20183;-76
2023/01/12 05:55:54;;;;;;;3.27;0.73;;;7.90;28.80;;;;;;5048300;28;20208;-76
2023/01/12 05:58:20;;;;;;;4.37;1.27;;;8.00;24.80;;;;;;5048374;28;20199;-76
2023/01/12 06:00:45;;;;;;;3.37;0.80;;;8.00;24.10;;;;;;5046533;28;20190;-75
2023/01/12 06:03:11;;;;;;;1.90;0.90;;;8.00;20.20;;;;;;5047804;28;20182;-75
2023/01/12 06:05:37;;;;;;;2.90;0.90;;;8.00;20.00;;;;;;5047202;28;20182;-75
2023/01/12 06:08:02;;;;;;;3.07;0.77;;;8.00;17.10;;;;;;5047984;28;20311;-74
2023/01/12 06:10:28;;;;;;;1.47;0.73;;;8.00;16.00;;;;;;5047803;28;20233;-78
2023/01/12 06:15:38;;;;;;;3.63;1.37;;;8.00;14.50;;;;;;5048325;28;20212;-76
2023/01/12 06:18:04;;;;;;;1.37;0.90;;;8.10;9.70;;;;;;5046411;28;20146;-77
2023/01/12 06:20:30;;;;;;;2.10;0.83;;;8.10;5.80;;;;;;5047702;28;20714;-76
2023/01/12 06:23:03;;;;;;;3.87;1.40;;;8.10;7.40;;;;;;5045553;28;20277;-77
2023/01/12 06:25:30;;;;;;;1.47;0.80;;;8.10;9.10;;;;;;5052186;28;20179;-77
2023/01/12 06:27:56;;;;;;;2.47;0.80;;;8.10;9.50;;;;;;5046424;28;20240;-75
2023/01/12 06:30:22;;;;;;;1.80;0.83;;;8.10;7.60;;;;;;5046347;28;20241;-76
2023/01/12 06:32:47;;;;;;;1.47;0.80;;;8.10;6.80;;;;;;5046753;28;20225;-74
2023/01/12 06:35:13;;;;;;;2.70;0.73;;;8.10;3.70;;;;;;5047367;28;20197;-75
2023/01/12 06:37:38;;;;;;;2.23;0.70;;;8.20;1.20;;;;;;5045471;28;20202;-75
2023/01/12 06:40:05;;;;;;;2.13;0.80;;;8.10;3.20;;;;;;5047123;28;20213;-76
2023/01/12 06:42:31;;;;;;;2.43;0.70;;;8.20;1.50;;;;;;5044936;28;20190;-78
2023/01/12 06:44:59;;;;;;;2.27;1.33;;;8.10;1.40;;;;;;5045956;28;20186;-76
2023/01/12 06:47:26;;;;;;;3.37;0.90;;;8.20;1.00;;;;;;5043767;28;20547;-77
2023/01/12 06:49:52;;;;;;;2.80;1.40;;;8.20;1.00;;;;;;5042813;28;20210;-78
2023/01/12 06:52:19;;;;;;;2.17;0.93;;;8.20;1.00;;;;;;5041617;28;20228;-78
2023/01/12 06:54:45;;;;;;;3.17;1.10;;;8.20;1.00;;;;;;5040005;28;20256;-75
2023/01/12 06:57:25;;;;;;;1.73;0.70;;;8.10;3.10;;;;;;5044041;28;20605;-78
2023/01/12 06:59:52;;;;;;;4.20;1.57;;;8.20;1.00;;;;;;5041188;28;20930;-79
2023/01/12 07:02:17;;;;;;;2.67;0.90;;;8.30;1.00;;;;;;5040499;28;20214;-77
2023/01/12 07:04:43;;;;;;;2.67;1.00;;;8.30;1.00;;;;;;5040153;28;20307;-74
2023/01/12 07:07:09;;;;;;;3.33;1.20;;;9.30;1.00;;;;;;5039600;28;20424;-78
2023/01/12 07:09:35;;;;;;;2.70;0.93;;;8.30;1.00;;;;;;5042759;28;20217;-76
2023/01/12 07:12:02;;;;;;;4.33;1.00;;;8.30;1.00;;;;;;5041969;28;20190;-77
2023/01/12 07:14:28;;;;;;;2.43;1.00;;;8.40;1.00;;;;;;5044064;28;20189;-76
2023/01/12 07:16:54;;;;;;;3.27;1.37;;;8.40;1.00;;;;;;5043451;28;20174;-77
2023/01/12 07:19:19;;;;;;;2.83;1.10;;;8.40;1.00;;;;;;5044363;28;20271;-78
2023/01/12 07:21:46;;;;;;;1.77;0.83;;;8.40;1.00;;;;;;5045023;28;20189;-77
2023/01/12 07:24:12;;;;;;;3.80;1.20;;;8.40;1.00;;;;;;5043552;28;20186;-75
2023/01/12 07:26:37;;;;;;;4.00;1.20;;;8.40;1.00;;;;;;5044596;28;20190;-78
2023/01/12 07:29:03;;;;;;;3.20;1.13;;;8.40;1.00;;;;;;5043647;28;20722;-77
2023/01/12 07:31:29;;;;;;;4.80;2.17;;;8.40;1.00;;;;;;5043260;28;20472;-76
2023/01/12 07:33:54;;;;;;;4.70;1.10;;;8.40;1.00;;;;;;5043999;28;20233;-77
2023/01/12 07:36:20;;;;;;;5.30;1.30;;;8.40;1.00;;;;;;5042740;28;20182;-76
2023/01/12 07:38:46;;;;;;;3.67;1.20;;;8.50;1.00;;;;;;5043737;28;20217;-77
2023/01/12 07:42:22;;;;;;;4.20;1.23;;;8.50;1.00;;;;;;5043447;28;20190;-77
2023/01/12 07:43:58;;;;;;;2.97;0.70;;;8.50;1.00;;;;;;5043472;28;20198;-75
2023/01/12 07:46:24;;;;;;;2.10;0.90;;;8.60;1.00;;;;;;5043762;28;20186;-76
2023/01/12 07:48:50;;;;;;;3.87;1.93;;;8.60;1.00;;;;;;5044654;28;20213;-78
2023/01/12 07:51:16;;;;;;;2.77;1.27;;;8.60;1.00;;;;;;5045082;28;20186;-78
2023/01/12 07:53:41;;;;;;;4.37;1.70;;;8.60;1.00;;;;;;5045079;28;20189;-76
2023/01/12 07:56:08;;;;;;;3.17;1.00;;;8.70;1.00;;;;;;5044747;28;20190;-76
2023/01/12 07:58:34;;;;;;;3.50;0.90;;;8.60;1.00;;;;;;5044340;28;20201;-77
2023/01/12 08:01:00;;;;;;;2.43;1.00;;;8.60;1.00;;;;;;5041303;28;20337;-75
2023/01/12 08:03:27;;;;;;;5.57;1.20;;;8.60;1.00;;;;;;5042908;28;20273;-76
2023/01/12 08:05:53;;;;;;;4.00;0.97;;;8.60;1.00;;;;;;5041439;28;20692;-77
2023/01/12 08:08:19;;;;;;;3.70;1.00;;;8.70;1.00;;;;;;5041828;28;20236;-76
2023/01/12 08:10:48;;;;;;;2.93;1.00;;;8.70;1.00;;;;;;5042243;28;20289;-77
2023/01/12 08:13:14;;;;;;;3.10;0.90;;;8.70;1.00;;;;;;5043348;28;20987;-78
2023/01/12 08:15:48;;;;;;;1.40;0.67;;;8.80;1.00;;;;;;5044639;28;20174;-77
2023/01/12 08:18:24;;;;;;;4.40;1.23;;;8.80;1.00;;;;;;5039644;28;20591;-77
2023/01/12 08:20:51;;;;;;;3.20;1.00;;;8.80;1.00;;;;;;5044179;28;20186;-75
2023/01/12 08:23:24;;;;;;;1.40;0.70;;;8.80;1.00;;;;;;5044529;28;20178;-76
2023/01/12 08:25:55;;;;;;;3.27;1.40;;;8.80;1.00;;;;;;5044208;28;20485;-77
2023/01/12 08:28:27;;;;;;;2.00;1.20;;;8.80;1.00;;;;;;5043530;28;20299;-75
2023/01/12 08:30:53;;;;;;;3.00;1.60;;;8.70;1.00;;;;;;5044995;28;20182;-78
2023/01/12 08:33:19;;;;;;;2.17;1.20;;;8.70;1.00;;;;;;5045523;28;20201;-80
2023/01/12 08:35:45;;;;;;;1.43;0.73;;;8.70;1.00;;;;;;5045177;28;20185;-76
2023/01/12 08:38:11;;;;;;;1.40;0.70;;;8.60;1.00;;;;;;5045544;28;20206;-79
2023/01/12 08:46:08;;;;;;;1.53;0.90;;;8.70;1.00;;;;;;5046545;28;20213;-76
2023/01/12 08:48:35;;;;;;;1.67;0.60;;;8.60;1.00;;;;;;5045357;28;20698;-75
2023/01/12 08:51:00;;;;;;;0.97;0.60;;;8.70;1.00;;;;;;5047010;28;20214;-74
2023/01/12 08:53:26;;;;;;;1.90;0.80;;;8.70;1.00;;;;;;5046624;28;20214;-76
2023/01/12 08:55:52;;;;;;;1.63;0.60;;;8.70;1.00;;;;;;5046952;28;20178;-76
2023/01/12 08:58:18;;;;;;;2.67;0.57;;;9.80;1.00;;;;;;5046162;28;20596;-76
2023/01/12 09:00:44;;;;;;;1.47;0.43;;;8.70;1.00;;;;;;5045387;28;20196;-76
2023/01/12 09:03:09;;;;;;;3.73;0.47;;;8.70;17.90;;;;;;5046115;28;20265;-76
2023/01/12 09:05:35;;;;;;;1.30;0.50;;;8.70;1.00;;;;;;5043327;28;20648;-76
2023/01/12 09:08:00;;;;;;;2.27;0.50;;;8.80;1.00;;;;;;5046445;28;20731;-77
2023/01/12 09:10:26;;;;;;;1.57;0.60;;;8.70;1.00;;;;;;5046640;28;21452;-75
2023/01/12 09:12:52;;;;;;;1.37;0.50;;;8.80;1.00;;;;;;5046524;28;20174;-76
2023/01/12 09:15:17;;;;;;;1.20;0.43;;;8.80;1.00;;;;;;5027592;28;20260;-77
2023/01/12 09:17:43;;;;;;;2.40;0.60;;;8.70;1.00;;;;;;5044070;28;20225;-78
2023/01/12 09:20:10;;;;;;;1.20;0.77;;;8.70;1.00;;;;;;5042017;28;20197;-78
2023/01/12 09:22:35;;;;;;;0.90;0.50;;;8.70;1.00;;;;;;5045437;28;20196;-78
2023/01/12 09:25:01;;;;;;;0.80;0.80;;;8.70;1.00;;;;;;5043234;28;20269;-78
2023/01/12 09:27:27;;;;;;;0.97;0.67;;;8.70;1.00;;;;;;5043706;28;20902;-78
2023/01/12 09:29:52;;;;;;;1.73;0.80;;;8.70;1.00;;;;;;5043234;28;20679;-78
2023/01/12 09:32:19;;;;;;;1.07;0.50;;;8.70;1.00;;;;;;5044259;28;20182;-77
2023/01/12 09:34:47;;;;;;;0.83;0.53;;;8.70;1.00;;;;;;5045544;28;20196;-78
2023/01/12 09:37:13;;;;;;;0.40;0.40;;;;;;;;;;5041554;28;20178;-78
2023/01/12 09:39:39;;;;;;;2.23;0.60;;;8.70;1.00;;;;;;5043954;28;20273;-77
2023/01/12 09:48:00;;;;;;;1.10;0.60;;;8.90;1.00;;;;;;5046586;28;20216;-78
2023/01/12 09:50:38;;;;;;;0.30;0.30;;;8.90;1.00;;;;;;5043228;28;20206;-77
2023/01/12 09:53:21;;;;;;;1.03;0.67;;;8.90;1.00;;;;;;5044169;28;20257;-77
2023/01/12 09:56:12;;;;;;;1.53;0.40;;;9.10;1.00;;;;;;5046089;28;20186;-76
2023/01/12 09:59:06;;;;;;;0.30;0.30;;;9.10;1.00;;;;;;5047538;28;20202;-77
2023/01/12 10:01:36;;;;;;;2.57;0.60;;;9.10;1.00;;;;;;5046163;28;20168;-77
2023/01/12 10:04:03;;;;;;;0.60;0.50;;;9.10;1.00;;;;;;5046776;28;20171;-76
2023/01/12 10:06:30;;;;;;;0.77;0.43;;;;;;;;;;5045071;28;20555;-78
2023/01/12 10:08:58;;;;;;;0.40;0.30;;;9.10;1.00;;;;;;5047587;28;20210;-77
2023/01/12 10:11:27;;;;;;;0.77;0.47;;;9.10;1.00;;;;;;5047596;28;20205;-77
2023/01/12 10:14:11;;;;;;;0.30;0.30;;;9.20;1.00;;;;;;5047634;28;20201;-78
2023/01/12 10:16:46;;;;;;;0.20;0.20;;;9.30;19.90;;;;;;5047703;28;20182;-78
2023/01/12 10:19:38;;;;;;;0.37;0.37;;;9.00;1.00;;;;;;5047647;28;20213;-77
2023/01/12 10:22:38;;;;;;;0.20;0.20;;;10.70;1.00;;;;;;5036591;28;20187;-78
2023/01/12 10:25:29;;;;;;;0.57;0.30;;;9.10;1.00;;;;;;5040705;28;20198;-76
2023/01/12 10:27:58;;;;;;;0.83;0.40;;;9.10;1.00;;;;;;5054442;28;20299;-77
2023/01/12 10:30:35;;;;;;;0.50;0.50;;;9.20;1.00;;;;;;5045951;28;20210;-78
2023/01/12 10:33:07;;;;;;;0.97;0.40;;;9.20;1.00;;;;;;5045341;28;20182;-78
2023/01/12 10:35:33;;;;;;;1.20;0.23;;;9.30;1.00;;;;;;5046471;28;20349;-78
2023/01/12 10:37:58;;;;;;;0.80;0.40;;;9.30;1.00;;;;;;5045755;28;20210;-78
2023/01/12 10:40:28;;;;;;;0.63;0.40;;;9.30;1.00;;;;;;5044721;28;20186;-78
2023/01/12 10:43:30;;;;;;;2.73;0.40;;;9.50;1.00;;;;;;5052675;28;20189;-77
2023/01/12 10:46:16;;;;;;;0.40;0.30;;;9.40;1.00;;;;;;5045686;28;20181;-77
2023/01/12 10:48:47;;;;;;;0.70;0.40;;;9.40;1.00;;;;;;5035634;28;20202;-77
2023/01/12 10:51:34;;;;;;;1.80;0.40;;;9.40;1.00;;;;;;5048111;28;20182;-78
2023/01/12 10:54:18;;;;;;;0.40;0.23;;;9.30;1.00;;;;;;5047485;28;20278;-76
2023/01/12 10:56:56;;;;;;;0.60;0.40;;;9.30;1.00;;;;;;5046871;28;20520;-77
2023/01/12 10:59:24;;;;;;;0.77;0.40;;;9.40;99.90;;;;;;5047611;28;20766;-77
2023/01/12 11:02:11;;;;;;;0.67;0.40;;;9.40;1.00;;;;;;5046579;28;20182;-77
2023/01/12 11:04:41;;;;;;;0.73;0.20;;;9.40;1.00;;;;;;5045015;28;20274;-77
2023/01/12 11:07:29;;;;;;;1.27;0.40;;;9.30;1.00;;;;;;5048941;28;20614;-78
2023/01/12 11:10:16;;;;;;;0.70;0.30;;;9.30;1.00;;;;;;5044683;28;20210;-77
2023/01/12 11:12:41;;;;;;;0.60;0.30;;;9.40;1.00;;;;;;5046857;28;20208;-78
2023/01/12 11:15:13;;;;;;;0.83;0.30;;;9.40;1.00;;;;;;5048338;28;20933;-77
2023/01/12 11:17:56;;;;;;;0.50;0.30;;;9.40;1.00;;;;;;5048409;28;20672;-78
2023/01/12 11:20:56;;;;;;;0.30;0.30;;;9.40;1.00;;;;;;5049127;28;20549;-78
2023/01/12 11:23:26;;;;;;;0.40;0.23;;;9.40;1.00;;;;;;5048099;28;20723;-77
2023/01/12 11:25:52;;;;;;;0.33;0.33;;;9.40;1.00;;;;;;5048115;28;21031;-77
2023/01/12 11:28:33;;;;;;;0.93;0.30;;;9.40;1.00;;;;;;5045679;28;20215;-77
2023/01/12 11:31:01;;;;;;;0.37;0.30;;;;;;;;;;5046597;28;20186;-78
2023/01/12 11:33:43;;;;;;;0.27;0.27;;;9.40;1.00;;;;;;5047045;28;20198;-77
2023/01/12 11:36:23;;;;;;;1.50;0.30;;;9.40;1.00;;;;;;5044748;28;20817;-78
2023/01/12 11:38:54;;;;;;;0.50;0.40;;;9.40;1.00;;;;;;5044272;28;20217;-78
2023/01/12 11:41:30;;;;;;;0.50;0.40;;;9.40;1.00;;;;;;5043897;28;21229;-78
2023/01/12 11:44:15;;;;;;;0.83;0.30;;;9.50;1.00;;;;;;5043224;28;20308;-77
2023/01/12 11:46:55;;;;;;;0.40;0.40;;;9.80;1.00;;;;;;5044091;28;20660;-78
2023/01/12 11:49:39;;;;;;;0.90;0.40;;;9.50;1.00;;;;;;5037127;28;20244;-78
2023/01/12 11:52:09;;;;;;;1.60;0.40;;;9.50;1.00;;;;;;5052050;28;20302;-77
2023/01/12 11:54:37;;;;;;;0.30;0.30;;;9.60;1.00;;;;;;5042439;28;20184;-77
2023/01/12 11:57:31;;;;;;;6.80;0.60;;;9.70;1.00;;;;;;5042839;28;20208;-77
2023/01/12 12:00:00;;;;;;;4.57;1.10;;;;;;;;;;5023408;28;20211;-78
2023/01/12 12:02:56;;;;;;;2.30;0.90;;;9.70;1.00;;;;;;5034895;28;20190;-78
2023/01/12 12:05:43;;;;;;;3.03;0.73;;;9.70;1.00;;;;;;5021358;28;20232;-78
2023/01/12 12:08:45;;;;;;;0.40;0.30;;;9.80;1.00;;;;;;5043436;28;20218;-78
2023/01/12 12:11:37;;;;;;;2.27;0.30;;;9.80;1.00;;;;;;5043273;28;20197;-78
2023/01/12 12:14:44;;;;;;;1.73;0.50;;;9.80;1.00;;;;;;5042756;28;20214;-78
2023/01/12 12:17:18;;;;;;;0.57;0.30;;;9.80;1.00;;;;;;5009580;28;20198;-78
2023/01/12 12:19:57;;;;;;;0.30;0.30;;;9.80;1.00;;;;;;5043250;28;20209;-77
2023/01/12 12:22:38;;;;;;;0.53;0.23;;;9.80;1.00;;;;;;5045310;28;20182;-77
2023/01/12 12:25:40;;;;;;;2.47;0.40;;;9.80;1.00;;;;;;5045564;28;20252;-76
2023/01/12 12:28:32;;;;;;;1.50;0.40;;;9.80;1.00;;;;;;5045456;28;20229;-77
2023/01/12 12:31:17;;;;;;;0.47;0.30;;;9.70;1.00;;;;;;5045934;28;20216;-77
2023/01/12 12:34:24;;;;;;;0.60;0.40;;;9.70;1.00;;;;;;5045127;28;20229;-77
2023/01/12 12:36:55;;;;;;;0.20;0.20;;;9.80;1.00;;;;;;5045684;28;20190;-78
2023/01/12 12:39:33;;;;;;;0.53;0.33;;;9.70;1.00;;;;;;5045567;28;20280;-77
2023/01/12 12:45:15;;;;;;;0.37;0.20;;;9.80;1.00;;;;;;5046043;28;20189;-78
2023/01/12 12:47:46;;;;;;;1.00;0.30;;;9.70;3.50;;;;;;5045133;28;20202;-77
2023/01/12 12:50:31;;;;;;;0.70;0.30;;;9.70;3.80;;;;;;5045328;28;20237;-78
2023/01/12 12:53:20;;;;;;;0.20;0.20;;;9.70;4.70;;;;;;5044615;28;20177;-76
2023/01/12 12:55:48;;;;;;;0.53;0.30;;;9.80;8.40;;;;;;5043474;28;20197;-77
2023/01/12 12:58:20;;;;;;;0.40;0.40;;;9.80;6.40;;;;;;5046085;28;20688;-77
2023/01/12 13:00:46;;;;;;;0.50;0.20;;;9.80;15.10;;;;;;5045549;28;20186;-77
2023/01/12 13:03:38;;;;;;;0.33;0.20;;;9.80;15.50;;;;;;5045247;28;20186;-78
2023/01/12 13:06:20;;;;;;;0.50;0.20;;;9.80;11.40;;;;;;5038124;28;20243;-77
2023/01/12 13:08:49;;;;;;;0.20;0.20;;;9.70;18.30;;;;;;5045113;28;20248;-77
2023/01/12 13:11:15;;;;;;;0.50;0.30;;;9.80;18.40;;;;;;5045149;28;20186;-78
2023/01/12 13:13:58;;;;;;;1.13;0.30;;;9.80;20.30;;;;;;5044547;28;20558;-78
2023/01/12 13:16:28;;;;;;;0.73;0.20;;;9.70;21.40;;;;;;5045181;28;20202;-77
2023/01/12 13:18:53;;;;;;;0.60;0.30;;;9.70;22.80;;;;;;5045431;28;20194;-78
2023/01/12 13:21:25;;;;;;;1.33;0.30;;;9.70;27.50;;;;;;5045370;28;20185;-76
2023/01/12 13:23:51;;;;;;;0.27;0.20;;;9.70;25.00;;;;;;5044978;28;20194;-77
2023/01/12 13:26:38;;;;;;;0.70;0.30;;;9.70;30.00;;;;;;5046293;28;20568;-76
2023/01/12 13:29:36;;;;;;;0.60;0.30;;;9.70;28.80;;;;;;5048979;28;20856;-76
2023/01/12 13:32:30;;;;;;;0.83;0.23;;;9.70;32.90;;;;;;5005039;28;20229;-78
2023/01/12 13:34:55;;;;;;;0.30;0.30;;;9.80;39.30;;;;;;5049141;28;20190;-77
2023/01/12 13:37:43;;;;;;;0.20;0.20;;;9.80;37.90;;;;;;5048955;28;20210;-77
2023/01/12 13:40:19;;;;;;;0.33;0.20;;;9.80;36.10;;;;;;5048778;28;20194;-77
2023/01/12 13:45:31;;;;;;;1.10;0.30;;;9.80;33.50;;;;;;5049083;28;20220;-77
2023/01/12 13:47:58;;;;;;;0.67;0.30;;;9.80;39.00;;;;;;5048818;28;20202;-78
2023/01/12 13:50:26;;;;;;;0.93;0.40;;;9.80;40.00;;;;;;5053233;28;20226;-77
2023/01/12 13:52:57;;;;;;;0.30;0.30;;;9.80;49.10;;;;;;5047968;28;20247;-77
2023/01/12 13:55:26;;;;;;;0.30;0.30;;;9.80;45.30;;;;;;5042293;28;20182;-78
2023/01/12 13:58:16;;;;;;;0.97;0.43;;;9.80;51.90;;;;;;5046513;28;20190;-78
2023/01/12 14:00:51;;;;;;;1.20;0.50;;;9.90;75.10;;;;;;5045030;28;20194;-76
2023/01/12 14:03:32;;;;;;;2.63;1.33;;;9.80;47.70;;;;;;5046958;28;20276;-78
2023/01/12 14:06:11;;;;;;;2.20;0.30;;;9.80;51.50;;;;;;5048111;28;20194;-78
2023/01/12 14:08:50;;;;;;;0.30;0.30;;;9.80;55.30;;;;;;5046015;28;20198;-77